<?xml version='1.0' encoding='UTF-8'?>
<gpx xmlns="http://www.topografix.com/GPX/1/1" creator="www.balnam.be" version="1.1" xmlns:xsi="http://www.w3.org/2001/XMLSchema-instance" xsi:schemaLocation="http://www.topografix.com/GPX/1/1 http://www.topografix.com/GPX/1/1/gpx.xsd">
<trk>
<name>hhoah10</name>
<cmt>q</cmt>
<desc>Athis Chemin n°10 </desc>
<link href="https://chemins.be/athis/chemin/10"/><trkseg>
<trkpt lat="50.365616" lon="3.778140"><time>2026-05-02T20:37:58Z</time></trkpt>
<trkpt lat="50.365717" lon="3.778672"><time>2026-05-02T20:47:58Z</time></trkpt>
<trkpt lat="50.364945" lon="3.779878"><time>2026-05-02T20:57:58Z</time></trkpt>
</trkseg>
</trk>
<trk>
<name>hhoah12</name>
<cmt>v</cmt>
<desc>Athis Chemin n°12 </desc>
<link href="https://chemins.be/athis/chemin/12"/><trkseg>
<trkpt lat="50.364181" lon="3.773807"><time>2026-05-02T20:37:58Z</time></trkpt>
<trkpt lat="50.363693" lon="3.774492"><time>2026-05-02T20:47:58Z</time></trkpt>
</trkseg></trk>
<trk>
<name>hhoah12</name>
<cmt>q</cmt>
<desc>Athis Chemin n°12 </desc>
<link href="https://chemins.be/athis/chemin/12"/><trkseg>
<trkpt lat="50.363693" lon="3.774492"><time>2026-05-02T20:47:58Z</time></trkpt>
<trkpt lat="50.362453" lon="3.776952"><time>2026-05-02T20:57:58Z</time></trkpt>
</trkseg>
</trk>
<trk>
<name>hhoah13</name>
<cmt>q</cmt>
<desc>Athis Chemin n°13 </desc>
<link href="https://chemins.be/athis/chemin/13"/><trkseg>
<trkpt lat="50.363503" lon="3.769826"><time>2026-05-02T20:37:58Z</time></trkpt>
<trkpt lat="50.364747" lon="3.768582"><time>2026-05-02T20:47:58Z</time></trkpt>
</trkseg>
</trk>
<trk>
<name>hhoah15</name>
<cmt>v</cmt>
<desc>Athis Chemin n°15 </desc>
<link href="https://chemins.be/athis/chemin/15"/><trkseg>
<trkpt lat="50.358307" lon="3.773597"><time>2026-05-02T20:37:58Z</time></trkpt>
<trkpt lat="50.358607" lon="3.773163"><time>2026-05-02T20:47:58Z</time></trkpt>
<trkpt lat="50.358758" lon="3.773101"><time>2026-05-02T20:57:58Z</time></trkpt>
<trkpt lat="50.359013" lon="3.772626"><time>2026-05-02T21:07:58Z</time></trkpt>
<trkpt lat="50.359186" lon="3.772619"><time>2026-05-02T21:17:58Z</time></trkpt>
</trkseg>
</trk>
<trk>
<name>hhoah16</name>
<cmt>q</cmt>
<desc>Athis Sentier n°16 </desc>
<link href="https://chemins.be/athis/sentier/16"/><trkseg>
<trkpt lat="50.372734" lon="3.780075"><time>2026-05-02T20:37:58Z</time></trkpt>
<trkpt lat="50.374031" lon="3.779096"><time>2026-05-02T20:47:58Z</time></trkpt>
</trkseg>
</trk>
<trk>
<name>hhoah17</name>
<cmt>q</cmt>
<desc>Athis Sentier n°17 Rue du Cimetière</desc>
<link href="https://chemins.be/athis/sentier/17"/><trkseg>
<trkpt lat="50.363693" lon="3.762345"><time>2026-05-02T20:37:58Z</time></trkpt>
<trkpt lat="50.363863" lon="3.763890"><time>2026-05-02T20:47:58Z</time></trkpt>
<trkpt lat="50.364345" lon="3.764749"><time>2026-05-02T20:57:58Z</time></trkpt>
<trkpt lat="50.364416" lon="3.765058"><time>2026-05-02T21:07:58Z</time></trkpt>
<trkpt lat="50.364629" lon="3.765118"><time>2026-05-02T21:17:58Z</time></trkpt>
<trkpt lat="50.365067" lon="3.766783"><time>2026-05-02T21:27:58Z</time></trkpt>
<trkpt lat="50.366036" lon="3.768233"><time>2026-05-02T21:37:58Z</time></trkpt>
<trkpt lat="50.366266" lon="3.769014"><time>2026-05-02T21:47:58Z</time></trkpt>
<trkpt lat="50.367170" lon="3.771933"><time>2026-05-02T21:57:58Z</time></trkpt>
<trkpt lat="50.367197" lon="3.772825"><time>2026-05-02T22:07:58Z</time></trkpt>
<trkpt lat="50.367980" lon="3.775254"><time>2026-05-02T22:17:58Z</time></trkpt>
</trkseg></trk>
<trk>
<name>hhoah17</name>
<cmt>v</cmt>
<desc>Athis Sentier n°17 Rue du Cimetière</desc>
<link href="https://chemins.be/athis/sentier/17"/><trkseg>
<trkpt lat="50.367980" lon="3.775254"><time>2026-05-02T22:17:58Z</time></trkpt>
<trkpt lat="50.367723" lon="3.775608"><time>2026-05-02T22:27:58Z</time></trkpt>
</trkseg></trk>
<trk>
<name>hhoah17</name>
<cmt>q</cmt>
<desc>Athis Sentier n°17 Rue du Cimetière</desc>
<link href="https://chemins.be/athis/sentier/17"/><trkseg>
<trkpt lat="50.367723" lon="3.775608"><time>2026-05-02T22:27:58Z</time></trkpt>
<trkpt lat="50.368232" lon="3.777125"><time>2026-05-02T22:37:58Z</time></trkpt>
<trkpt lat="50.368210" lon="3.777803"><time>2026-05-02T22:47:58Z</time></trkpt>
<trkpt lat="50.368664" lon="3.778567"><time>2026-05-02T22:57:58Z</time></trkpt>
<trkpt lat="50.368522" lon="3.780619"><time>2026-05-02T23:07:58Z</time></trkpt>
</trkseg>
</trk>
<trk>
<name>hhoah18</name>
<cmt>q</cmt>
<desc>Athis Sentier n°18 </desc>
<link href="https://chemins.be/athis/sentier/18"/><trkseg>
<trkpt lat="50.358986" lon="3.773980"><time>2026-05-02T20:37:58Z</time></trkpt>
<trkpt lat="50.359594" lon="3.773199"><time>2026-05-02T20:47:58Z</time></trkpt>
<trkpt lat="50.360464" lon="3.773001"><time>2026-05-02T20:57:58Z</time></trkpt>
<trkpt lat="50.361214" lon="3.773276"><time>2026-05-02T21:07:58Z</time></trkpt>
<trkpt lat="50.363427" lon="3.771364"><time>2026-05-02T21:17:58Z</time></trkpt>
<trkpt lat="50.363814" lon="3.771269"><time>2026-05-02T21:27:58Z</time></trkpt>
</trkseg></trk>
<trk>
<name>hhoah18</name>
<cmt>r</cmt>
<desc>Athis Sentier n°18 </desc>
<link href="https://chemins.be/athis/sentier/18"/><trkseg>
<trkpt lat="50.363814" lon="3.771269"><time>2026-05-02T21:27:58Z</time></trkpt>
<trkpt lat="50.363713" lon="3.770320"><time>2026-05-02T21:37:58Z</time></trkpt>
</trkseg></trk>
<trk>
<name>hhoah18</name>
<cmt>q</cmt>
<desc>Athis Sentier n°18 </desc>
<link href="https://chemins.be/athis/sentier/18"/><trkseg>
<trkpt lat="50.363713" lon="3.770320"><time>2026-05-02T21:37:58Z</time></trkpt>
<trkpt lat="50.366251" lon="3.769017"><time>2026-05-02T21:47:58Z</time></trkpt>
<trkpt lat="50.368423" lon="3.766915"><time>2026-05-02T21:57:58Z</time></trkpt>
</trkseg>
</trk>
<trk>
<name>hhoah19</name>
<cmt>q</cmt>
<desc>Athis Sentier n°19 Rue d'Athis</desc>
<link href="https://chemins.be/athis/sentier/19"/><trkseg>
<trkpt lat="50.359184" lon="3.772616"><time>2026-05-02T20:37:58Z</time></trkpt>
<trkpt lat="50.359604" lon="3.773210"><time>2026-05-02T20:47:58Z</time></trkpt>
<trkpt lat="50.360733" lon="3.772993"><time>2026-05-02T20:57:58Z</time></trkpt>
<trkpt lat="50.361236" lon="3.773241"><time>2026-05-02T21:07:58Z</time></trkpt>
<trkpt lat="50.363679" lon="3.774508"><time>2026-05-02T21:17:58Z</time></trkpt>
</trkseg></trk>
<trk>
<name>hhoah19</name>
<cmt>v</cmt>
<desc>Athis Sentier n°19 Rue d'Athis</desc>
<link href="https://chemins.be/athis/sentier/19"/><trkseg>
<trkpt lat="50.363679" lon="3.774508"><time>2026-05-02T21:17:58Z</time></trkpt>
<trkpt lat="50.364202" lon="3.773804"><time>2026-05-02T21:27:58Z</time></trkpt>
</trkseg></trk>
<trk>
<name>hhoah19</name>
<cmt>r</cmt>
<desc>Athis Sentier n°19 Rue d'Athis</desc>
<link href="https://chemins.be/athis/sentier/19"/><trkseg>
<trkpt lat="50.364202" lon="3.773804"><time>2026-05-02T21:27:58Z</time></trkpt>
<trkpt lat="50.364284" lon="3.774253"><time>2026-05-02T21:37:58Z</time></trkpt>
<trkpt lat="50.364854" lon="3.775314"><time>2026-05-02T21:47:58Z</time></trkpt>
</trkseg></trk>
<trk>
<name>hhoah19</name>
<cmt>q</cmt>
<desc>Athis Sentier n°19 Rue d'Athis</desc>
<link href="https://chemins.be/athis/sentier/19"/><trkseg>
<trkpt lat="50.364854" lon="3.775314"><time>2026-05-02T21:47:58Z</time></trkpt>
<trkpt lat="50.366677" lon="3.774593"><time>2026-05-02T21:57:58Z</time></trkpt>
<trkpt lat="50.368002" lon="3.775237"><time>2026-05-02T22:07:58Z</time></trkpt>
</trkseg></trk>
<trk>
<name>hhoah19</name>
<cmt>v</cmt>
<desc>Athis Sentier n°19 Rue d'Athis</desc>
<link href="https://chemins.be/athis/sentier/19"/><trkseg>
<trkpt lat="50.368002" lon="3.775237"><time>2026-05-02T22:07:58Z</time></trkpt>
<trkpt lat="50.368861" lon="3.774473"><time>2026-05-02T22:17:58Z</time></trkpt>
</trkseg></trk>
<trk>
<name>hhoah19</name>
<cmt>q</cmt>
<desc>Athis Sentier n°19 Rue d'Athis</desc>
<link href="https://chemins.be/athis/sentier/19"/><trkseg>
<trkpt lat="50.368861" lon="3.774473"><time>2026-05-02T22:17:58Z</time></trkpt>
<trkpt lat="50.372964" lon="3.776241"><time>2026-05-02T22:27:58Z</time></trkpt>
</trkseg>
</trk>
<trk>
<name>hhoah2</name>
<cmt>v</cmt>
<desc>Athis Chemin n°2 </desc>
<link href="https://chemins.be/athis/chemin/2"/><trkseg>
<trkpt lat="50.364990" lon="3.789382"><time>2026-05-02T20:37:58Z</time></trkpt>
<trkpt lat="50.366756" lon="3.793995"><time>2026-05-02T20:47:58Z</time></trkpt>
</trkseg>
</trk>
<trk>
<name>hhoah20</name>
<cmt>q</cmt>
<desc>Athis Sentier n°20 </desc>
<link href="https://chemins.be/athis/sentier/20"/><trkseg>
<trkpt lat="50.364965" lon="3.776499"><time>2026-05-02T20:37:58Z</time></trkpt>
<trkpt lat="50.366008" lon="3.776143"><time>2026-05-02T20:47:58Z</time></trkpt>
<trkpt lat="50.366733" lon="3.776868"><time>2026-05-02T20:57:58Z</time></trkpt>
</trkseg>
</trk>
<trk>
<name>hhoah21</name>
<cmt>q</cmt>
<desc>Athis Sentier n°21 </desc>
<link href="https://chemins.be/athis/sentier/21"/><trkseg>
<trkpt lat="50.365463" lon="3.777782"><time>2026-05-02T20:37:58Z</time></trkpt>
<trkpt lat="50.366060" lon="3.777430"><time>2026-05-02T20:47:58Z</time></trkpt>
<trkpt lat="50.366238" lon="3.777040"><time>2026-05-02T20:57:58Z</time></trkpt>
<trkpt lat="50.366728" lon="3.776842"><time>2026-05-02T21:07:58Z</time></trkpt>
</trkseg>
</trk>
<trk>
<name>hhoah22</name>
<cmt>q</cmt>
<desc>Athis Sentier n°22 </desc>
<link href="https://chemins.be/athis/sentier/22"/><trkseg>
<trkpt lat="50.365761" lon="3.778694"><time>2026-05-02T20:37:58Z</time></trkpt>
<trkpt lat="50.365944" lon="3.779088"><time>2026-05-02T20:47:58Z</time></trkpt>
<trkpt lat="50.365925" lon="3.780039"><time>2026-05-02T20:57:58Z</time></trkpt>
<trkpt lat="50.367235" lon="3.781620"><time>2026-05-02T21:07:58Z</time></trkpt>
<trkpt lat="50.367513" lon="3.782471"><time>2026-05-02T21:17:58Z</time></trkpt>
</trkseg>
</trk>
<trk>
<name>hhoah23</name>
<cmt>q</cmt>
<desc>Athis Sentier n°23 </desc>
<link href="https://chemins.be/athis/sentier/23"/><trkseg>
<trkpt lat="50.368562" lon="3.780561"><time>2026-05-02T20:37:58Z</time></trkpt>
<trkpt lat="50.367143" lon="3.781520"><time>2026-05-02T20:47:58Z</time></trkpt>
</trkseg>
</trk>
<trk>
<name>hhoah24</name>
<cmt>q</cmt>
<desc>Athis Sentier n°24 </desc>
<link href="https://chemins.be/athis/sentier/24"/><trkseg>
<trkpt lat="50.361965" lon="3.779473"><time>2026-05-02T20:37:58Z</time></trkpt>
<trkpt lat="50.362373" lon="3.773782"><time>2026-05-02T20:47:58Z</time></trkpt>
<trkpt lat="50.362496" lon="3.772074"><time>2026-05-02T20:57:58Z</time></trkpt>
<trkpt lat="50.362720" lon="3.770315"><time>2026-05-02T21:07:58Z</time></trkpt>
<trkpt lat="50.362625" lon="3.769961"><time>2026-05-02T21:17:58Z</time></trkpt>
<trkpt lat="50.362817" lon="3.769356"><time>2026-05-02T21:27:58Z</time></trkpt>
<trkpt lat="50.362455" lon="3.768377"><time>2026-05-02T21:37:58Z</time></trkpt>
</trkseg>
</trk>
<trk>
<name>hhoah25</name>
<cmt>q</cmt>
<desc>Athis Sentier n°25 </desc>
<link href="https://chemins.be/athis/sentier/25"/><trkseg>
<trkpt lat="50.365315" lon="3.783988"><time>2026-05-02T20:37:58Z</time></trkpt>
<trkpt lat="50.363892" lon="3.780760"><time>2026-05-02T20:47:58Z</time></trkpt>
<trkpt lat="50.363481" lon="3.780958"><time>2026-05-02T20:57:58Z</time></trkpt>
<trkpt lat="50.363284" lon="3.779567"><time>2026-05-02T21:07:58Z</time></trkpt>
<trkpt lat="50.362222" lon="3.776254"><time>2026-05-02T21:17:58Z</time></trkpt>
</trkseg>
</trk>
<trk>
<name>hhoah26</name>
<cmt>q</cmt>
<desc>Athis Sentier n°26 </desc>
<link href="https://chemins.be/athis/sentier/26"/><trkseg>
<trkpt lat="50.364877" lon="3.779949"><time>2026-05-02T20:37:58Z</time></trkpt>
<trkpt lat="50.363949" lon="3.780966"><time>2026-05-02T20:47:58Z</time></trkpt>
<trkpt lat="50.363596" lon="3.783945"><time>2026-05-02T20:57:58Z</time></trkpt>
<trkpt lat="50.363002" lon="3.784348"><time>2026-05-02T21:07:58Z</time></trkpt>
</trkseg>
</trk>
<trk>
<name>hhoah27</name>
<cmt>q</cmt>
<desc>Athis Sentier n°27 </desc>
<link href="https://chemins.be/athis/sentier/27"/><trkseg>
<trkpt lat="50.366322" lon="3.783322"><time>2026-05-02T20:37:58Z</time></trkpt>
<trkpt lat="50.367011" lon="3.785289"><time>2026-05-02T20:47:58Z</time></trkpt>
<trkpt lat="50.367896" lon="3.786505"><time>2026-05-02T20:57:58Z</time></trkpt>
<trkpt lat="50.369712" lon="3.789960"><time>2026-05-02T21:07:58Z</time></trkpt>
<trkpt lat="50.370478" lon="3.793786"><time>2026-05-02T21:17:58Z</time></trkpt>
</trkseg>
</trk>
<trk>
<name>hhoah28</name>
<cmt>q</cmt>
<desc>Athis Sentier n°28 </desc>
<link href="https://chemins.be/athis/sentier/28"/><trkseg>
<trkpt lat="50.364853" lon="3.775896"><time>2026-05-02T20:37:58Z</time></trkpt>
<trkpt lat="50.362951" lon="3.776851"><time>2026-05-02T20:47:58Z</time></trkpt>
<trkpt lat="50.362465" lon="3.776947"><time>2026-05-02T20:57:58Z</time></trkpt>
<trkpt lat="50.361130" lon="3.778310"><time>2026-05-02T21:07:58Z</time></trkpt>
<trkpt lat="50.361007" lon="3.778192"><time>2026-05-02T21:17:58Z</time></trkpt>
<trkpt lat="50.358605" lon="3.778331"><time>2026-05-02T21:27:58Z</time></trkpt>
</trkseg>
</trk>
<trk>
<name>hhoah29</name>
<cmt>q</cmt>
<desc>Athis Sentier n°29 </desc>
<link href="https://chemins.be/athis/sentier/29"/><trkseg>
<trkpt lat="50.358372" lon="3.773981"><time>2026-05-02T20:37:58Z</time></trkpt>
<trkpt lat="50.358026" lon="3.774233"><time>2026-05-02T20:47:58Z</time></trkpt>
<trkpt lat="50.357780" lon="3.775241"><time>2026-05-02T20:57:58Z</time></trkpt>
<trkpt lat="50.358074" lon="3.776100"><time>2026-05-02T21:07:58Z</time></trkpt>
<trkpt lat="50.358673" lon="3.778380"><time>2026-05-02T21:17:58Z</time></trkpt>
<trkpt lat="50.359960" lon="3.780043"><time>2026-05-02T21:27:58Z</time></trkpt>
<trkpt lat="50.360565" lon="3.780826"><time>2026-05-02T21:37:58Z</time></trkpt>
</trkseg>
</trk>
<trk>
<name>hhoah3</name>
<cmt>v</cmt>
<desc>Athis Chemin n°3 Rue du Préfeuillet</desc>
<link href="https://chemins.be/athis/chemin/3"/><trkseg>
<trkpt lat="50.372591" lon="3.771246"><time>2026-05-02T20:37:58Z</time></trkpt>
<trkpt lat="50.373040" lon="3.776752"><time>2026-05-02T20:47:58Z</time></trkpt>
<trkpt lat="50.373182" lon="3.778396"><time>2026-05-02T20:57:58Z</time></trkpt>
<trkpt lat="50.372730" lon="3.780112"><time>2026-05-02T21:07:58Z</time></trkpt>
<trkpt lat="50.372156" lon="3.784125"><time>2026-05-02T21:17:58Z</time></trkpt>
<trkpt lat="50.372320" lon="3.785305"><time>2026-05-02T21:27:58Z</time></trkpt>
<trkpt lat="50.372046" lon="3.788652"><time>2026-05-02T21:37:58Z</time></trkpt>
<trkpt lat="50.372179" lon="3.790771"><time>2026-05-02T21:47:58Z</time></trkpt>
</trkseg>
</trk>
<trk>
<name>hhoah30</name>
<cmt>q</cmt>
<desc>Athis Sentier n°30 </desc>
<link href="https://chemins.be/athis/sentier/30"/><trkseg>
<trkpt lat="50.361920" lon="3.779531"><time>2026-05-02T20:37:58Z</time></trkpt>
<trkpt lat="50.363064" lon="3.778870"><time>2026-05-02T20:47:58Z</time></trkpt>
</trkseg>
</trk>
<trk>
<name>hhoah32</name>
<cmt>q</cmt>
<desc>Athis Sentier n°32 </desc>
<link href="https://chemins.be/athis/sentier/32"/><trkseg>
<trkpt lat="50.365624" lon="3.778252"><time>2026-05-02T20:37:58Z</time></trkpt>
<trkpt lat="50.364548" lon="3.779402"><time>2026-05-02T20:47:58Z</time></trkpt>
</trkseg>
</trk>
<trk>
<name>hhoah35</name>
<cmt>q</cmt>
<desc>Athis Sentier n°35 </desc>
<link href="https://chemins.be/athis/sentier/35"/><trkseg>
<trkpt lat="50.362323" lon="3.780735"><time>2026-05-02T20:37:58Z</time></trkpt>
<trkpt lat="50.363388" lon="3.780288"><time>2026-05-02T20:47:58Z</time></trkpt>
</trkseg>
</trk>
<trk>
<name>hhoah36</name>
<cmt>q</cmt>
<desc>Athis Sentier n°36 </desc>
<link href="https://chemins.be/athis/sentier/36"/><trkseg>
<trkpt lat="50.365518" lon="3.780813"><time>2026-05-02T20:37:58Z</time></trkpt>
<trkpt lat="50.366023" lon="3.780230"><time>2026-05-02T20:47:58Z</time></trkpt>
</trkseg>
</trk>
<trk>
<name>hhoah37</name>
<cmt>q</cmt>
<desc>Athis Sentier n°37 </desc>
<link href="https://chemins.be/athis/sentier/37"/><trkseg>
<trkpt lat="50.359415" lon="3.771110"><time>2026-05-02T20:37:58Z</time></trkpt>
<trkpt lat="50.359098" lon="3.769718"><time>2026-05-02T20:47:58Z</time></trkpt>
<trkpt lat="50.359198" lon="3.768567"><time>2026-05-02T20:57:58Z</time></trkpt>
<trkpt lat="50.359472" lon="3.767945"><time>2026-05-02T21:07:58Z</time></trkpt>
</trkseg>
</trk>
<trk>
<name>hhoah38</name>
<cmt>q</cmt>
<desc>Athis Sentier n°38 </desc>
<link href="https://chemins.be/athis/sentier/38"/><trkseg>
<trkpt lat="50.363047" lon="3.786367"><time>2026-05-02T20:37:58Z</time></trkpt>
<trkpt lat="50.361267" lon="3.787043"><time>2026-05-02T20:47:58Z</time></trkpt>
<trkpt lat="50.360350" lon="3.786550"><time>2026-05-02T20:57:58Z</time></trkpt>
</trkseg>
</trk>
<trk>
<name>hhoah39</name>
<cmt>q</cmt>
<desc>Athis Sentier n°39 </desc>
<link href="https://chemins.be/athis/sentier/39"/><trkseg>
<trkpt lat="50.361096" lon="3.780681"><time>2026-05-02T20:37:58Z</time></trkpt>
<trkpt lat="50.361185" lon="3.782805"><time>2026-05-02T20:47:58Z</time></trkpt>
<trkpt lat="50.360569" lon="3.786689"><time>2026-05-02T20:57:58Z</time></trkpt>
</trkseg>
</trk>
<trk>
<name>hhoah4</name>
<cmt>v</cmt>
<desc>Athis Chemin n°4 </desc>
<link href="https://chemins.be/athis/chemin/4"/><trkseg>
<trkpt lat="50.369276" lon="3.781403"><time>2026-05-02T20:37:58Z</time></trkpt>
<trkpt lat="50.369497" lon="3.781252"><time>2026-05-02T20:47:58Z</time></trkpt>
<trkpt lat="50.370741" lon="3.780375"><time>2026-05-02T20:57:58Z</time></trkpt>
<trkpt lat="50.370882" lon="3.780286"><time>2026-05-02T21:07:58Z</time></trkpt>
<trkpt lat="50.371008" lon="3.780249"><time>2026-05-02T21:17:58Z</time></trkpt>
<trkpt lat="50.372700" lon="3.780068"><time>2026-05-02T21:27:58Z</time></trkpt>
</trkseg>
</trk>
<trk>
<name>hhoah40</name>
<cmt>q</cmt>
<desc>Athis Sentier n°40 Rue du Paradis</desc>
<link href="https://chemins.be/athis/sentier/40"/><trkseg>
<trkpt lat="50.369411" lon="3.781414"><time>2026-05-02T20:37:58Z</time></trkpt>
<trkpt lat="50.370128" lon="3.784873"><time>2026-05-02T20:47:58Z</time></trkpt>
<trkpt lat="50.370528" lon="3.786256"><time>2026-05-02T20:57:58Z</time></trkpt>
</trkseg>
</trk>
<trk>
<name>hhoah5</name>
<cmt>v</cmt>
<desc>Athis Chemin n°5 Rue du Cimetière</desc>
<link href="https://chemins.be/athis/chemin/5"/><trkseg>
<trkpt lat="50.367108" lon="3.776365"><time>2026-05-02T20:37:58Z</time></trkpt>
<trkpt lat="50.368422" lon="3.774850"><time>2026-05-02T20:47:58Z</time></trkpt>
<trkpt lat="50.370460" lon="3.772514"><time>2026-05-02T20:57:58Z</time></trkpt>
<trkpt lat="50.371196" lon="3.772251"><time>2026-05-02T21:07:58Z</time></trkpt>
<trkpt lat="50.372566" lon="3.771208"><time>2026-05-02T21:17:58Z</time></trkpt>
</trkseg>
</trk>
<trk>
<name>hhoah6</name>
<cmt>v</cmt>
<desc>Athis Chemin n°6 Rue du Paradis</desc>
<link href="https://chemins.be/athis/chemin/6"/><trkseg>
<trkpt lat="50.369272" lon="3.781407"><time>2026-05-02T20:37:58Z</time></trkpt>
<trkpt lat="50.369373" lon="3.781656"><time>2026-05-02T20:47:58Z</time></trkpt>
<trkpt lat="50.370093" lon="3.784790"><time>2026-05-02T20:57:58Z</time></trkpt>
<trkpt lat="50.372079" lon="3.791176"><time>2026-05-02T21:07:58Z</time></trkpt>
</trkseg>
</trk>
<trk>
<name>hhoah9</name>
<cmt>v</cmt>
<desc>Athis Chemin n°9 </desc>
<link href="https://chemins.be/athis/chemin/9"/><trkseg>
<trkpt lat="50.359426" lon="3.771164"><time>2026-05-02T20:37:58Z</time></trkpt>
<trkpt lat="50.360371" lon="3.770585"><time>2026-05-02T20:47:58Z</time></trkpt>
<trkpt lat="50.361767" lon="3.768504"><time>2026-05-02T20:57:58Z</time></trkpt>
<trkpt lat="50.362383" lon="3.768589"><time>2026-05-02T21:07:58Z</time></trkpt>
</trkseg>
</trk>
<trk>
<name>hhoahi1</name>
<cmt>v</cmt>
<desc>Athis Sentier n°i1 </desc>
<link href="https://chemins.be/athis/sentier/i1"/><trkseg>
<trkpt lat="50.358371" lon="3.773957"><time>2026-05-02T20:37:58Z</time></trkpt>
<trkpt lat="50.358095" lon="3.773737"><time>2026-05-02T20:47:58Z</time></trkpt>
</trkseg>
</trk>
<trk>
<name>hhoahi2</name>
<cmt>v</cmt>
<desc>Athis Sentier n°i2 </desc>
<link href="https://chemins.be/athis/sentier/i2"/><trkseg>
<trkpt lat="50.359076" lon="3.773225"><time>2026-05-02T20:37:58Z</time></trkpt>
<trkpt lat="50.358779" lon="3.773089"><time>2026-05-02T20:47:58Z</time></trkpt>
</trkseg>
</trk>
</gpx>